Time;durP1;ratioP1;P1;durP2;ratioP2;P2;SDS_P1;SDS_P2;PMS_P1;PMS_P2;Temp;Humidity;BMP_temperature;BMP_pressure;BME280_temperature;BME280_humidity;BME280_pressure;Samples;Min_cycle;Max_cycle;Signal;HPM_P1;HPM_P2
2021/03/22 00:02:44;;;;;;;14.57;4.47;;;;;;;7.61;49.01;100651.72;10241184;28;20106;-69
2021/03/22 00:07:45;;;;;;;14.48;4.38;;;;;;;7.63;49.14;100651.63;10240451;28;20070;-70
2021/03/22 00:12:47;;;;;;;16.63;3.88;;;;;;;7.66;48.96;100643.53;10232337;28;20043;-70
2021/03/22 00:18:02;;;;;;;14.25;4.00;;;;;;;7.72;49.06;100643.97;10243671;28;20054;-71
2021/03/22 00:23:09;;;;;;;12.98;3.17;;;;;;;7.67;49.00;100643.44;10242801;28;20051;-71
2021/03/22 00:28:12;;;;;;;13.98;4.43;;;;;;;7.64;49.02;100656.88;10252176;28;20101;-70
2021/03/22 00:33:15;;;;;;;16.73;4.45;;;;;;;7.61;49.11;100643.78;10231307;28;20219;-70
2021/03/22 00:38:18;;;;;;;13.15;4.10;;;;;;;7.61;49.06;100625.22;10240146;28;20058;-70
2021/03/22 00:43:19;;;;;;;11.43;4.40;;;;;;;7.67;49.31;100624.00;10247961;28;20054;-70
2021/03/22 00:48:28;;;;;;;14.52;4.57;;;;;;;7.67;49.00;100621.34;10231383;28;20057;-70
2021/03/22 00:53:29;;;;;;;13.77;4.10;;;;;;;7.70;49.08;100613.22;10230815;28;20126;-69
2021/03/22 00:58:30;;;;;;;15.35;4.20;;;;;;;7.67;48.91;100614.28;10236057;28;20051;-70
2021/03/22 01:03:33;;;;;;;14.27;4.05;;;;;;;7.38;49.67;100614.25;10232739;28;21419;-70
2021/03/22 01:08:39;;;;;;;11.43;3.80;;;;;;;7.53;49.01;100608.97;10230207;28;20142;-69
2021/03/22 01:13:41;;;;;;;9.13;3.40;;;;;;;7.61;49.13;100609.34;10272383;28;20051;-70
2021/03/22 01:18:54;;;;;;;13.75;4.55;;;;;;;7.36;49.21;100616.16;10231362;28;20070;-69
2021/03/22 01:23:55;;;;;;;12.70;4.57;;;;;;;7.49;49.38;100604.81;10239889;28;20449;-70
2021/03/22 01:28:57;;;;;;;11.90;4.43;;;;;;;7.55;49.24;100601.78;10233067;28;20060;-69
2021/03/22 01:33:58;;;;;;;16.25;3.90;;;;;;;7.57;49.40;100602.56;10230665;28;20059;-69
2021/03/22 01:39:14;;;;;;;11.15;3.88;;;;;;;7.50;49.53;100603.88;10223985;28;20142;-71
2021/03/22 01:44:34;;;;;;;10.45;3.92;;;;;;;7.61;49.43;100596.09;10229816;28;20082;-70
2021/03/22 01:50:05;;;;;;;11.95;4.07;;;;;;;7.43;49.86;100585.72;10226260;28;20079;-71
2021/03/22 01:55:08;;;;;;;13.30;4.00;;;;;;;7.38;50.33;100584.28;10229467;28;20121;-69
2021/03/22 02:00:27;;;;;;;13.52;3.90;;;;;;;7.43;49.66;100579.53;10221714;28;20581;-71
2021/03/22 02:05:30;;;;;;;14.77;3.85;;;;;;;7.47;49.17;100582.88;10227629;28;20047;-71
2021/03/22 02:10:32;;;;;;;9.55;4.13;;;;;;;7.44;49.26;100587.41;10231728;28;20105;-70
2021/03/22 02:15:33;;;;;;;12.27;3.50;;;;;;;7.44;49.12;100598.00;10255048;28;20043;-71
2021/03/22 02:20:59;;;;;;;15.93;4.30;;;;;;;7.43;48.91;100601.59;10239729;28;20114;-71
2021/03/22 02:26:11;;;;;;;11.75;3.38;;;;;;;7.35;48.87;100595.91;10224006;28;20047;-71
2021/03/22 02:31:31;;;;;;;11.30;3.60;;;;;;;7.21;49.07;100601.22;10266847;28;20031;-72
2021/03/22 02:36:48;;;;;;;8.85;3.13;;;;;;;7.30;49.10;100603.31;10264367;28;20051;-71
2021/03/22 02:41:56;;;;;;;10.40;2.83;;;;;;;7.39;48.85;100601.91;10264542;28;20074;-71
2021/03/22 02:47:01;;;;;;;10.27;3.13;;;;;;;7.35;49.15;100608.31;10246141;28;20055;-71
2021/03/22 02:52:41;;;;;;;12.60;3.47;;;;;;;7.48;48.50;100596.03;10543146;27;20385;-61
2021/03/22 02:57:53;;;;;;;9.45;2.47;;;;;;;7.35;48.49;100601.22;10505300;27;20551;-64
2021/03/22 03:02:59;;;;;;;9.25;2.78;;;;;;;7.21;49.02;100599.41;10526430;27;20042;-59
2021/03/22 03:08:07;;;;;;;7.68;2.42;;;;;;;6.87;49.45;100613.81;10506274;27;20043;-61
2021/03/22 03:13:08;;;;;;;8.65;3.25;;;;;;;7.02;49.51;100612.06;10516001;27;20040;-61
2021/03/22 03:18:11;;;;;;;10.85;2.40;;;;;;;6.80;50.38;100623.06;10474812;27;20052;-59
2021/03/22 03:23:13;;;;;;;5.95;2.58;;;;;;;7.04;49.67;100621.63;10509379;27;20099;-59
2021/03/22 03:28:13;;;;;;;11.05;2.80;;;;;;;6.97;50.03;100625.56;10512345;27;20048;-60
2021/03/22 03:33:15;;;;;;;7.55;2.28;;;;;;;7.12;49.43;100622.97;10506469;27;20525;-59
2021/03/22 03:38:16;;;;;;;10.57;2.72;;;;;;;7.15;49.76;100622.78;10501389;28;20044;-60
2021/03/22 03:43:18;;;;;;;11.65;2.80;;;;;;;7.20;49.74;100616.25;10499917;28;20047;-60
2021/03/22 03:48:23;;;;;;;7.22;2.00;;;;;;;7.15;50.01;100626.25;10490691;27;20086;-60
2021/03/22 03:53:24;;;;;;;;;;;;;;;7.03;50.18;100627.84;10478812;28;20081;-59
2021/03/22 03:58:26;;;;;;;5.25;1.95;;;;;;;7.13;50.38;100624.66;10496598;28;19950;-61
2021/03/22 04:03:33;;;;;;;9.60;2.42;;;;;;;6.77;50.81;100625.88;10488472;28;20052;-59
2021/03/22 04:08:39;;;;;;;8.10;1.98;;;;;;;6.75;50.95;100622.50;10488489;28;20059;-62
2021/03/22 04:13:40;;;;;;;8.13;2.40;;;;;;;6.69;51.39;100611.31;10470736;28;20071;-62
2021/03/22 04:18:42;;;;;;;8.27;2.47;;;;;;;6.36;52.21;100620.28;10511226;28;20041;-59
2021/03/22 04:23:44;;;;;;;6.78;2.38;;;;;;;6.15;53.46;100629.41;10503805;28;20048;-59
2021/03/22 04:28:46;;;;;;;6.45;2.03;;;;;;;6.47;53.11;100624.06;10501723;28;20040;-60
2021/03/22 04:33:48;;;;;;;5.55;2.25;;;;;;;6.44;53.24;100616.31;10506385;28;20049;-58
2021/03/22 04:38:49;;;;;;;5.55;2.17;;;;;;;6.55;53.67;100616.56;10506136;28;20056;-60
2021/03/22 04:43:51;;;;;;;5.57;2.08;;;;;;;6.75;52.93;100618.03;10485799;28;20602;-60
2021/03/22 04:48:52;;;;;;;6.78;2.60;;;;;;;6.67;52.68;100623.78;10480007;28;20105;-61
2021/03/22 04:53:53;;;;;;;6.20;2.00;;;;;;;6.67;53.25;100623.78;10470302;28;20093;-61
2021/03/22 04:58:54;;;;;;;8.02;2.30;;;;;;;6.89;52.74;100622.50;10458292;28;20057;-61
2021/03/22 05:03:55;;;;;;;6.95;2.25;;;;;;;6.91;52.68;100633.88;10485826;28;20040;-60
2021/03/22 05:08:57;;;;;;;7.43;2.72;;;;;;;6.87;52.94;100640.28;10493151;28;20313;-59
2021/03/22 05:13:58;;;;;;;6.72;1.95;;;;;;;6.75;52.84;100647.16;10482898;28;20109;-59
2021/03/22 05:18:59;;;;;;;8.70;2.03;;;;;;;6.90;52.83;100655.97;10481583;28;20049;-62
2021/03/22 05:24:00;;;;;;;4.95;1.90;;;;;;;6.82;53.16;100652.94;10465896;28;20052;-61
2021/03/22 05:29:01;;;;;;;4.93;1.92;;;;;;;7.02;52.74;100659.72;10468234;28;20090;-61
2021/03/22 05:34:03;;;;;;;5.05;1.73;;;;;;;6.67;53.27;100660.81;10469748;28;20630;-60
2021/03/22 05:39:04;;;;;;;4.40;1.60;;;;;;;6.77;53.52;100655.88;10482228;28;20103;-58
2021/03/22 05:44:28;;;;;;;9.10;1.90;;;;;;;6.64;53.55;100658.34;10492884;28;20079;-61
2021/03/22 05:49:51;;;;;;;7.40;2.13;;;;;;;6.65;54.19;100661.84;10469808;28;20052;-58
2021/03/22 05:55:01;;;;;;;8.77;2.17;;;;;;;6.34;55.10;100664.44;10501964;28;20098;-61
2021/03/22 06:00:26;;;;;;;6.32;1.77;;;;;;;6.37;56.08;100668.72;10476781;28;20056;-60
2021/03/22 06:06:07;;;;;;;5.38;2.03;;;;;;;6.67;55.41;100666.13;10474028;28;20048;-59
2021/03/22 06:11:42;;;;;;;8.15;2.33;;;;;;;6.90;54.99;100669.22;10474193;28;20048;-61
2021/03/22 06:16:56;;;;;;;5.82;2.05;;;;;;;6.97;54.40;100673.22;10461223;28;20045;-61
2021/03/22 06:22:21;;;;;;;6.13;2.75;;;;;;;6.83;55.44;100676.69;10468635;28;20044;-62
2021/03/22 06:27:23;;;;;;;5.25;2.22;;;;;;;6.93;54.91;100676.13;10459793;28;20717;-59
2021/03/22 06:32:28;;;;;;;6.35;2.15;;;;;;;6.66;56.03;100680.28;10444998;28;20594;-61
2021/03/22 06:37:33;;;;;;;4.47;1.80;;;;;;;6.47;56.53;100676.97;10443276;28;20077;-62
2021/03/22 06:42:35;;;;;;;4.45;2.13;;;;;;;6.25;57.15;100685.28;10446893;28;20049;-60
2021/03/22 06:47:36;;;;;;;6.50;2.15;;;;;;;6.33;57.21;100677.75;10464423;28;20099;-61
2021/03/22 06:52:42;;;;;;;4.25;1.90;;;;;;;6.41;57.15;100690.53;10446296;28;20044;-60
2021/03/22 06:57:50;;;;;;;4.55;2.00;;;;;;;6.35;57.52;100703.19;10436759;28;21406;-61
2021/03/22 07:02:58;;;;;;;7.95;2.00;;;;;;;6.77;56.89;100699.97;10440379;28;20118;-60
2021/03/22 07:08:10;;;;;;;5.65;2.50;;;;;;;6.83;56.25;100708.44;10444857;28;20056;-61
2021/03/22 07:13:22;;;;;;;4.65;1.80;;;;;;;6.48;56.84;100707.78;10440927;28;20037;-61
2021/03/22 07:18:31;;;;;;;6.75;2.40;;;;;;;6.72;56.58;100702.88;10441602;28;20082;-60
2021/03/22 07:23:34;;;;;;;4.40;1.95;;;;;;;6.52;57.58;100712.81;10438898;28;20584;-62
2021/03/22 07:28:51;;;;;;;6.93;2.88;;;;;;;7.15;56.41;100710.16;10441162;28;20052;-64
2021/03/22 07:34:14;;;;;;;4.43;2.10;;;;;;;7.21;55.57;100720.38;10442871;28;20123;-60
2021/03/22 07:40:17;;;;;;;6.38;2.22;;;;;;;6.97;56.21;100731.44;10452702;28;20075;-63
2021/03/22 07:45:33;;;;;;;3.30;1.65;;;;;;;6.92;55.90;100725.59;10425434;28;20113;-61
2021/03/22 07:50:43;;;;;;;6.28;2.13;;;;;;;7.17;55.69;100743.50;10452551;28;20238;-59
2021/03/22 07:56:12;;;;;;;5.47;2.15;;;;;;;7.47;54.70;100744.47;10452831;28;20052;-59
2021/03/22 08:01:30;;;;;;;4.40;1.73;;;;;;;7.34;55.15;100750.50;10446512;28;20090;-62
2021/03/22 08:06:46;;;;;;;13.55;3.20;;;;;;;7.15;56.07;100747.22;10445520;28;20056;-58
2021/03/22 08:12:06;;;;;;;5.97;2.03;;;;;;;7.04;56.41;100748.69;10450974;28;20049;-61
2021/03/22 08:17:15;;;;;;;3.83;1.83;;;;;;;7.73;54.68;100754.34;10450035;28;20118;-58
2021/03/22 08:22:40;;;;;;;5.53;1.98;;;;;;;8.00;54.39;100752.72;10448257;28;20056;-60
2021/03/22 08:27:51;;;;;;;5.32;2.03;;;;;;;8.20;52.98;100754.16;10441609;28;20056;-58
2021/03/22 08:33:12;;;;;;;3.92;1.60;;;;;;;8.37;52.75;100761.91;10444358;28;20064;-59
2021/03/22 08:38:16;;;;;;;5.43;1.95;;;;;;;8.53;52.30;100766.25;10440646;28;20441;-62
2021/03/22 08:43:24;;;;;;;4.73;1.57;;;;;;;8.65;51.91;100766.34;10442474;28;20059;-59
2021/03/22 08:48:29;;;;;;;6.45;2.33;;;;;;;8.75;51.55;100773.69;10440636;28;20143;-58
2021/03/22 08:53:41;;;;;;;5.35;1.98;;;;;;;8.47;51.84;100784.28;10443357;28;20495;-58
2021/03/22 08:58:47;;;;;;;4.15;1.75;;;;;;;8.59;52.43;100790.63;10439926;28;20048;-59
2021/03/22 09:03:52;;;;;;;4.20;2.60;;;;;;;8.75;53.25;100782.53;10439483;27;20143;-59
2021/03/22 09:08:59;;;;;;;5.82;2.17;;;;;;;8.75;53.64;100786.97;10446411;28;20071;-60
2021/03/22 09:14:16;;;;;;;4.18;2.50;;;;;;;8.43;52.91;100797.81;10440474;28;20047;-58
2021/03/22 09:19:30;;;;;;;4.07;1.85;;;;;;;8.32;53.99;100796.66;10440488;28;20137;-60
2021/03/22 09:24:51;;;;;;;4.85;1.65;;;;;;;8.66;52.84;100794.59;10438980;28;20057;-59
2021/03/22 09:29:55;;;;;;;4.78;2.00;;;;;;;8.71;52.71;100794.28;10440532;28;20048;-59
2021/03/22 09:35:16;;;;;;;5.60;2.00;;;;;;;8.58;52.73;100794.19;10439316;28;20037;-57
2021/03/22 09:40:17;;;;;;;4.90;1.65;;;;;;;8.97;52.14;100797.06;10433673;28;20127;-60
2021/03/22 09:45:22;;;;;;;4.45;2.20;;;;;;;9.26;51.24;100794.28;10434471;28;20052;-61
2021/03/22 09:50:28;;;;;;;4.70;1.95;;;;;;;9.50;50.48;100797.09;10436601;28;20145;-59
2021/03/22 09:55:29;;;;;;;4.55;2.08;;;;;;;9.33;50.44;100806.22;10437422;28;20095;-60
2021/03/22 10:00:33;;;;;;;8.18;2.35;;;;;;;9.01;50.99;100814.50;10436488;28;20049;-59
2021/03/22 10:05:46;;;;;;;3.73;1.40;;;;;;;9.49;49.89;100811.38;10439440;28;20434;-59
2021/03/22 10:11:18;;;;;;;6.90;2.47;;;;;;;9.30;49.82;100806.41;10437100;28;20050;-60
2021/03/22 10:16:22;;;;;;;4.22;2.03;;;;;;;9.46;49.53;100804.44;10436854;28;20079;-58
2021/03/22 10:21:27;;;;;;;4.90;2.23;;;;;;;9.43;49.82;100815.28;10436872;28;20049;-58
2021/03/22 10:26:49;;;;;;;2.65;1.48;;;;;;;9.42;49.04;100813.56;10435236;28;20118;-60
2021/03/22 10:32:06;;;;;;;2.55;1.23;;;;;;;9.60;48.82;100813.28;10434956;28;20044;-58
2021/03/22 10:37:29;;;;;;;3.40;1.88;;;;;;;9.63;48.53;100826.38;10439368;28;20056;-60
2021/03/22 10:42:30;;;;;;;3.22;1.40;;;;;;;9.60;48.88;100818.63;10433853;28;20136;-61
2021/03/22 10:47:33;;;;;;;2.55;1.58;;;;;;;9.69;48.52;100818.81;10442023;28;20048;-60
2021/03/22 10:52:34;;;;;;;2.83;1.17;;;;;;;10.34;47.36;100816.22;10455393;28;20041;-59
2021/03/22 10:57:42;;;;;;;2.85;0.90;;;;;;;11.14;45.61;100821.13;10441868;28;20639;-60
2021/03/22 11:02:48;;;;;;;3.00;1.48;;;;;;;12.33;41.80;100815.63;10439707;28;20056;-62
2021/03/22 11:07:55;;;;;;;3.53;1.10;;;;;;;11.40;44.51;100816.50;10439275;28;20044;-61
2021/03/22 11:12:56;;;;;;;5.55;1.40;;;;;;;10.94;45.92;100830.56;10446273;28;20049;-59
2021/03/22 11:17:58;;;;;;;3.53;1.23;;;;;;;10.42;47.44;100836.00;10445546;28;20048;-58
2021/03/22 11:23:26;;;;;;;3.75;1.13;;;;;;;10.32;48.44;100844.72;10449253;28;20060;-60
2021/03/22 11:28:30;;;;;;;2.85;1.60;;;;;;;10.13;49.51;100830.03;10397607;22;20381;-56
2021/03/22 11:33:40;;;;;;;3.55;1.30;;;;;;;10.33;48.81;100830.44;10265647;28;20046;-56
2021/03/22 11:38:58;;;;;;;2.75;1.33;;;;;;;10.60;49.44;100833.00;10274791;28;20050;-55
2021/03/22 11:44:20;;;;;;;7.75;2.88;;;;;;;10.35;49.92;100841.88;10269648;28;20054;-56
2021/03/22 11:49:41;;;;;;;2.35;1.25;;;;;;;10.21;48.64;100838.34;10266082;28;20082;-56
2021/03/22 11:55:03;;;;;;;1.88;1.13;;;;;;;9.95;47.71;100815.34;10270648;28;20097;-55
2021/03/22 12:00:19;;;;;;;2.58;0.90;;;;;;;10.09;49.37;100834.72;10270966;28;20582;-55
2021/03/22 12:05:26;;;;;;;3.55;1.98;;;;;;;9.98;49.33;100826.63;10268064;28;20042;-55
2021/03/22 12:10:31;;;;;;;2.15;1.20;;;;;;;10.27;48.48;100837.06;10273920;28;20042;-56
2021/03/22 12:15:32;;;;;;;2.60;1.55;;;;;;;10.48;47.54;100829.41;10270393;28;20058;-55
2021/03/22 12:20:35;;;;;;;4.50;1.73;;;;;;;10.53;47.89;100832.59;10261558;28;20050;-56
2021/03/22 12:25:36;;;;;;;2.20;1.17;;;;;;;10.49;47.76;100830.25;10278394;28;20089;-56
2021/03/22 12:30:37;;;;;;;1.88;1.48;;;;;;;10.45;47.41;100824.31;10270533;28;20213;-55
2021/03/22 12:35:39;;;;;;;3.40;1.15;;;;;;;10.89;46.55;100825.56;10269184;28;20046;-56
2021/03/22 12:40:41;;;;;;;3.15;1.23;;;;;;;11.23;45.29;100814.25;10275216;28;20757;-55
2021/03/22 12:45:42;;;;;;;2.88;1.48;;;;;;;10.94;45.96;100820.78;10274986;28;20124;-55
2021/03/22 12:50:44;;;;;;;5.03;1.52;;;;;;;11.05;45.73;100806.66;10280931;28;20049;-55
2021/03/22 12:55:46;;;;;;;1.92;1.45;;;;;;;11.03;45.71;100807.72;10275847;28;20087;-54
2021/03/22 13:00:49;;;;;;;2.63;1.40;;;;;;;10.86;46.26;100815.16;10277566;28;20109;-55
2021/03/22 13:05:53;;;;;;;2.40;1.60;;;;;;;10.38;47.96;100801.75;10273338;28;20061;-54
2021/03/22 13:10:56;;;;;;;2.13;1.37;;;;;;;10.55;48.14;100806.72;10274754;28;20092;-55
2021/03/22 13:15:58;;;;;;;2.83;2.03;;;;;;;10.91;46.63;100815.69;10277528;28;20046;-56
2021/03/22 13:21:10;;;;;;;2.67;1.30;;;;;;;10.73;47.31;100817.88;10277054;28;20167;-55
2021/03/22 13:26:14;;;;;;;3.33;1.65;;;;;;;11.37;45.74;100821.22;10273041;28;20148;-55
2021/03/22 13:31:17;;;;;;;3.13;1.55;;;;;;;11.43;45.61;100821.59;10277061;28;20056;-55
2021/03/22 13:36:23;;;;;;;3.95;1.70;;;;;;;11.22;46.40;100824.06;10272904;28;20109;-55
2021/03/22 13:41:33;;;;;;;2.40;1.92;;;;;;;10.98;46.56;100820.56;10271902;28;20070;-54
2021/03/22 13:46:34;;;;;;;2.33;1.67;;;;;;;10.56;48.14;100820.88;10272923;28;20181;-56
2021/03/22 13:51:39;;;;;;;3.40;2.13;;;;;;;10.37;48.43;100797.38;10270695;28;20062;-55
2021/03/22 13:56:40;;;;;;;3.60;2.15;;;;;;;10.66;47.94;100802.41;10228912;28;20070;-55
2021/03/22 14:01:41;;;;;;;3.78;1.38;;;;;;;10.82;47.87;100811.00;10231278;28;20070;-56
2021/03/22 14:06:42;;;;;;;6.38;2.28;;;;;;;10.70;48.60;100806.56;10231744;28;20411;-55
2021/03/22 14:11:43;;;;;;;4.18;1.80;;;;;;;10.64;49.06;100807.00;10232637;28;20059;-55
2021/03/22 14:16:45;;;;;;;7.03;3.05;;;;;;;11.07;47.85;100801.22;10238867;28;20488;-56
2021/03/22 14:21:48;;;;;;;3.13;1.80;;;;;;;11.94;45.97;100809.78;10237542;28;20063;-55
2021/03/22 14:26:49;;;;;;;3.35;1.88;;;;;;;11.24;46.17;100787.47;10236919;28;20059;-55
2021/03/22 14:31:50;;;;;;;3.63;1.73;;;;;;;11.01;47.13;100807.84;10234761;28;20058;-55
2021/03/22 14:36:53;;;;;;;2.42;1.90;;;;;;;10.95;47.53;100803.81;10234573;28;20055;-54
2021/03/22 14:41:54;;;;;;;3.28;2.13;;;;;;;10.49;48.48;100803.63;10233262;28;20468;-54
2021/03/22 14:46:56;;;;;;;3.75;1.73;;;;;;;10.13;50.30;100776.81;10230542;28;20142;-56
2021/03/22 14:51:58;;;;;;;2.78;1.77;;;;;;;9.79;52.51;100811.09;10233485;28;20058;-55
2021/03/22 14:56:58;;;;;;;6.03;2.15;;;;;;;10.00;52.23;100802.59;10230444;28;20259;-54
2021/03/22 15:02:00;;;;;;;5.90;2.53;;;;;;;9.71;53.38;100810.75;10233935;28;20058;-55
2021/03/22 15:07:01;;;;;;;2.28;1.85;;;;;;;9.76;53.35;100811.31;10225972;28;20255;-54
2021/03/22 15:12:04;;;;;;;2.97;1.92;;;;;;;9.87;53.41;100803.44;10227790;28;20074;-55
2021/03/22 15:17:05;;;;;;;3.15;1.60;;;;;;;9.68;55.55;100808.31;10230242;28;20699;-55
2021/03/22 15:22:07;;;;;;;3.08;1.90;;;;;;;9.83;54.60;100793.09;10232201;28;20168;-55
2021/03/22 15:27:07;;;;;;;2.13;1.90;;;;;;;9.93;54.18;100798.66;10235414;28;20078;-56
2021/03/22 15:32:08;;;;;;;2.97;1.38;;;;;;;9.81;54.87;100803.84;10228464;28;20417;-57
2021/03/22 15:37:10;;;;;;;1.48;0.68;;;;;;;10.02;53.68;100801.50;10231578;28;20051;-55
2021/03/22 15:42:11;;;;;;;2.60;1.25;;;;;;;9.73;53.88;100798.22;10232375;28;20667;-54
2021/03/22 15:47:12;;;;;;;2.00;0.82;;;;;;;9.73;54.06;100811.50;10227199;28;20637;-55
2021/03/22 15:52:14;;;;;;;1.88;1.20;;;;;;;9.65;54.96;100816.47;10222109;28;20054;-56
2021/03/22 15:57:15;;;;;;;2.92;1.20;;;;;;;9.55;55.97;100814.44;10228730;28;20054;-56
2021/03/22 16:02:16;;;;;;;2.15;1.05;;;;;;;9.27;58.71;100825.22;10234672;28;20047;-55
2021/03/22 16:07:17;;;;;;;1.80;0.75;;;;;;;9.47;59.24;100826.53;10228662;28;20425;-54
2021/03/22 16:12:18;;;;;;;1.30;0.70;;;;;;;9.37;58.80;100826.31;10237811;28;20082;-55
2021/03/22 16:17:20;;;;;;;1.17;0.70;;;;;;;9.47;59.44;100822.09;10237269;28;20066;-55
2021/03/22 16:22:21;;;;;;;1.40;1.30;;;;;;;9.28;60.13;100833.09;10224134;28;20055;-55
2021/03/22 16:27:22;;;;;;;1.60;0.73;;;;;;;9.48;59.33;100829.09;10233865;28;20737;-57
2021/03/22 16:32:24;;;;;;;1.85;1.05;;;;;;;9.15;59.12;100809.13;10237247;28;20058;-56
2021/03/22 16:37:26;;;;;;;2.35;0.90;;;;;;;9.50;58.73;100844.94;10238528;28;21453;-54
2021/03/22 16:42:26;;;;;;;2.38;1.58;;;;;;;9.41;58.83;100849.06;10237888;28;20153;-55
2021/03/22 16:47:31;;;;;;;2.58;1.13;;;;;;;9.47;58.38;100854.00;10238203;28;21089;-56
2021/03/22 16:52:33;;;;;;;5.15;1.52;;;;;;;8.93;58.87;100853.97;10232560;28;20051;-54
2021/03/22 16:57:34;;;;;;;2.03;1.30;;;;;;;8.98;58.68;100857.19;10233935;28;20412;-54
2021/03/22 17:02:37;;;;;;;3.22;1.35;;;;;;;8.60;60.53;100858.66;10224439;28;20427;-54
2021/03/22 17:07:39;;;;;;;2.70;2.00;;;;;;;8.62;62.15;100863.88;10224470;28;20176;-56
2021/03/22 17:12:40;;;;;;;2.58;1.88;;;;;;;8.80;60.89;100853.91;10230649;28;20057;-55
2021/03/22 17:17:41;;;;;;;3.88;2.30;;;;;;;8.80;60.27;100870.69;10231901;28;20055;-55
2021/03/22 17:22:43;;;;;;;3.30;2.17;;;;;;;8.70;60.90;100880.16;10229124;28;20092;-55
2021/03/22 17:27:44;;;;;;;2.10;1.90;;;;;;;8.31;61.15;100874.53;10232064;28;20150;-57
2021/03/22 17:32:45;;;;;;;4.03;2.83;;;;;;;8.27;61.49;100882.78;10231149;28;20180;-55
2021/03/22 17:37:47;;;;;;;2.85;1.65;;;;;;;8.31;61.01;100889.59;10231067;28;20059;-55
2021/03/22 17:42:49;;;;;;;3.67;2.08;;;;;;;8.13;60.98;100892.41;10236196;28;20050;-56
2021/03/22 17:47:50;;;;;;;2.50;1.60;;;;;;;8.07;60.48;100902.56;10236412;28;20178;-55
2021/03/22 17:52:52;;;;;;;2.72;1.58;;;;;;;8.21;60.44;100904.38;10233712;28;20544;-56
2021/03/22 17:57:53;;;;;;;4.68;2.03;;;;;;;8.58;58.93;100910.97;10234048;28;20057;-55
2021/03/22 18:02:55;;;;;;;3.45;1.80;;;;;;;8.44;58.90;100917.13;10235822;28;20099;-55
2021/03/22 18:07:57;;;;;;;5.60;1.67;;;;;;;8.56;58.50;100930.59;10236238;28;20051;-55
2021/03/22 18:12:58;;;;;;;3.63;1.30;;;;;;;8.37;58.26;100920.22;10230114;28;20047;-55
2021/03/22 18:17:59;;;;;;;2.97;1.70;;;;;;;8.37;58.92;100941.44;10234537;28;20070;-55
2021/03/22 18:23:00;;;;;;;2.53;1.70;;;;;;;8.55;58.60;100950.13;10236534;28;20089;-56
2021/03/22 18:28:01;;;;;;;2.63;2.00;;;;;;;8.47;58.65;100956.75;10234039;28;20058;-58
2021/03/22 18:33:02;;;;;;;4.35;2.10;;;;;;;8.69;57.94;100968.69;10233271;28;20054;-57
2021/03/22 18:38:04;;;;;;;3.45;2.10;;;;;;;8.77;58.05;100971.75;10227775;28;20817;-60
2021/03/22 18:43:14;;;;;;;3.47;2.17;;;;;;;8.82;57.35;100979.44;10231365;28;20061;-57
2021/03/22 18:48:16;;;;;;;2.92;2.40;;;;;;;8.91;57.97;100988.63;10231188;28;20058;-62
2021/03/22 18:53:20;;;;;;;7.07;2.80;;;;;;;8.88;57.08;100973.72;10230789;28;20856;-61
2021/03/22 18:58:21;;;;;;;4.90;2.38;;;;;;;9.10;56.15;100989.19;10234175;28;20522;-56
2021/03/22 19:03:26;;;;;;;3.70;2.28;;;;;;;9.18;56.02;101008.13;10233302;28;20062;-56
2021/03/22 19:08:27;;;;;;;2.80;2.10;;;;;;;8.98;55.93;101005.91;10235802;28;20145;-56
2021/03/22 19:13:30;;;;;;;3.97;2.70;;;;;;;9.08;56.26;101017.63;10237126;28;22722;-55
2021/03/22 19:18:31;;;;;;;5.30;3.38;;;;;;;9.00;55.69;101009.28;10234768;28;20982;-56
2021/03/22 19:23:38;;;;;;;3.35;3.00;;;;;;;8.91;56.42;101031.09;10234066;28;20058;-56
2021/03/22 19:28:41;;;;;;;4.60;2.70;;;;;;;8.99;56.03;101031.47;10228712;28;20054;-55
2021/03/22 19:33:42;;;;;;;5.32;3.10;;;;;;;9.01;55.77;101037.56;10237376;28;20071;-56
2021/03/22 19:38:43;;;;;;;2.83;2.50;;;;;;;9.03;55.44;101035.66;10237202;28;20137;-55
2021/03/22 19:43:44;;;;;;;4.72;2.95;;;;;;;8.99;55.07;101042.09;10235030;28;20057;-57
2021/03/22 19:48:45;;;;;;;4.30;3.40;;;;;;;8.99;54.64;101042.09;10238617;28;20055;-55
2021/03/22 19:53:46;;;;;;;2.90;2.60;;;;;;;8.93;54.83;101040.69;10236759;28;20592;-56
2021/03/22 19:58:47;;;;;;;4.72;3.13;;;;;;;8.83;54.85;101029.78;10243094;28;20476;-56
2021/03/22 20:03:49;;;;;;;5.18;3.38;;;;;;;8.93;54.77;101055.75;10243325;28;20115;-55
2021/03/22 20:08:50;;;;;;;5.45;3.25;;;;;;;8.58;56.01;101050.78;10238225;28;20054;-55
2021/03/22 20:13:51;;;;;;;5.45;3.90;;;;;;;8.42;56.56;101051.66;10237116;28;20061;-55
2021/03/22 20:18:53;;;;;;;5.82;4.00;;;;;;;7.95;58.16;101049.94;10240918;28;20058;-56
2021/03/22 20:23:54;;;;;;;7.93;4.60;;;;;;;8.18;58.09;101047.75;10239352;28;20058;-56
2021/03/22 20:28:58;;;;;;;4.88;3.88;;;;;;;8.51;57.21;101055.56;10237143;28;20447;-56
2021/03/22 20:34:19;;;;;;;6.22;4.35;;;;;;;8.38;57.29;101044.81;10236308;28;20050;-56
2021/03/22 20:39:20;;;;;;;8.10;5.65;;;;;;;8.66;56.54;101040.53;10236459;28;20050;-55
2021/03/22 20:44:21;;;;;;;6.43;4.97;;;;;;;8.74;56.32;101040.94;10237595;28;20074;-58
2021/03/22 20:49:22;;;;;;;6.28;4.93;;;;;;;8.78;56.30;101047.78;10231807;28;20047;-57
2021/03/22 20:54:23;;;;;;;7.85;5.40;;;;;;;8.77;56.45;101039.91;10237508;28;20065;-57
2021/03/22 20:59:24;;;;;;;8.00;5.30;;;;;;;8.58;56.11;101027.72;10233181;28;20145;-55
2021/03/22 21:04:25;;;;;;;7.88;6.05;;;;;;;8.58;56.54;101030.38;10229396;28;20055;-55
2021/03/22 21:09:30;;;;;;;6.38;5.40;;;;;;;8.69;56.67;101036.84;10230311;28;20075;-57
2021/03/22 21:14:30;;;;;;;7.75;6.70;;;;;;;8.77;56.03;101035.47;10232760;28;20060;-56
2021/03/22 21:19:31;;;;;;;7.80;6.35;;;;;;;8.76;56.02;101043.50;10232754;28;20058;-56
2021/03/22 21:24:32;;;;;;;8.02;6.82;;;;;;;8.76;55.73;101033.75;10231839;28;20065;-57
2021/03/22 21:29:33;;;;;;;8.65;7.72;;;;;;;8.76;55.78;101038.19;10232414;28;20051;-56
2021/03/22 21:34:34;;;;;;;9.27;8.27;;;;;;;8.74;56.11;101037.44;10234378;28;20099;-55
2021/03/22 21:39:36;;;;;;;10.00;7.60;;;;;;;8.54;56.52;101038.63;10231164;28;20087;-55
2021/03/22 21:44:37;;;;;;;10.10;8.25;;;;;;;8.43;56.53;101033.94;10239871;28;20051;-62
2021/03/22 21:49:38;;;;;;;9.45;8.45;;;;;;;8.31;56.78;101024.91;10254199;28;20051;-56
2021/03/22 21:54:39;;;;;;;9.73;8.73;;;;;;;8.43;56.54;101018.84;10246540;28;20113;-57
2021/03/22 21:59:41;;;;;;;9.80;8.77;;;;;;;8.36;57.18;101035.22;10250435;28;20112;-56
2021/03/22 22:04:42;;;;;;;10.07;8.98;;;;;;;8.52;56.87;101037.88;10259218;28;20772;-56
2021/03/22 22:09:43;;;;;;;11.52;9.27;;;;;;;8.60;56.32;101035.59;10256738;28;20093;-56
2021/03/22 22:14:44;;;;;;;11.02;9.20;;;;;;;8.66;56.39;101037.88;10253143;28;20512;-56
2021/03/22 22:19:46;;;;;;;12.18;9.18;;;;;;;8.60;56.38;101030.28;10250780;28;20481;-56
2021/03/22 22:24:47;;;;;;;12.52;10.02;;;;;;;8.66;56.40;101045.84;10251984;28;20058;-60
2021/03/22 22:29:48;;;;;;;12.65;10.68;;;;;;;8.65;56.51;101057.44;10260177;28;20074;-55
2021/03/22 22:34:54;;;;;;;11.75;10.55;;;;;;;8.71;56.17;101045.56;10258489;28;20051;-56
2021/03/22 22:39:54;;;;;;;12.88;10.85;;;;;;;8.67;56.61;101042.25;10256838;28;20059;-56
2021/03/22 22:44:55;;;;;;;11.20;10.10;;;;;;;8.66;56.63;101037.88;10256261;28;20653;-56
2021/03/22 22:49:56;;;;;;;13.77;12.38;;;;;;;8.65;56.68;101045.00;10254533;28;20131;-56
2021/03/22 22:54:57;;;;;;;13.75;11.88;;;;;;;8.67;57.09;101045.75;10258084;28;20125;-55
2021/03/22 22:59:58;;;;;;;14.63;13.00;;;;;;;8.55;57.33;101053.63;10240433;28;20711;-56
2021/03/22 23:05:18;;;;;;;15.57;14.07;;;;;;;8.55;57.69;101056.28;10258013;28;20054;-55
2021/03/22 23:10:24;;;;;;;16.63;14.02;;;;;;;8.11;59.02;101063.19;10252882;28;20047;-55
2021/03/22 23:15:33;;;;;;;17.75;13.70;;;;;;;8.19;58.83;101062.75;10264957;28;20051;-55
2021/03/22 23:20:34;;;;;;;15.88;13.88;;;;;;;8.02;59.18;101064.56;10263439;28;20054;-55
2021/03/22 23:25:35;;;;;;;16.88;15.07;;;;;;;7.99;59.18;101059.44;10286333;22;20139;-72
2021/03/22 23:30:38;;;;;;;17.42;14.95;;;;;;;7.86;59.66;101058.41;10344939;28;20050;-72
2021/03/22 23:35:43;;;;;;;19.65;16.05;;;;;;;8.08;59.12;101063.38;10357774;28;20042;-71